createdAt,value
2022-08-30T00:02:14.471Z,5.93
2022-08-30T00:04:41.730Z,6.43
2022-08-30T00:07:11.526Z,5.65
2022-08-30T00:09:38.852Z,9.10
2022-08-30T00:12:06.455Z,5.47
2022-08-30T00:14:33.853Z,7.03
2022-08-30T00:17:01.143Z,8.35
2022-08-30T00:19:28.478Z,7.40
2022-08-30T00:21:55.754Z,5.55
2022-08-30T00:24:23.307Z,11.07
2022-08-30T00:26:50.558Z,11.33
2022-08-30T00:29:17.946Z,14.10
2022-08-30T00:31:45.237Z,7.28
2022-08-30T00:34:12.662Z,7.38
2022-08-30T00:36:39.920Z,9.13
2022-08-30T00:39:07.291Z,7.60
2022-08-30T00:41:37.652Z,5.85
2022-08-30T00:44:05.650Z,7.77
2022-08-30T00:46:33.020Z,9.60
2022-08-30T00:49:06.884Z,6.78
2022-08-30T00:51:35.038Z,6.22
2022-08-30T00:54:04.267Z,7.93
2022-08-30T00:56:33.432Z,6.68
2022-08-30T00:59:04.638Z,10.50
2022-08-30T01:01:33.962Z,8.70
2022-08-30T01:04:02.828Z,10.40
2022-08-30T01:06:32.592Z,12.07
2022-08-30T01:09:04.400Z,10.32
2022-08-30T01:11:35.507Z,8.60
2022-08-30T01:14:04.016Z,10.35
2022-08-30T01:16:36.697Z,9.38
2022-08-30T01:19:08.687Z,11.57
2022-08-30T01:21:49.111Z,8.70
2022-08-30T01:24:18.307Z,10.55
2022-08-30T01:26:45.738Z,10.85
2022-08-30T01:29:21.437Z,12.25
2022-08-30T01:31:49.452Z,13.35
2022-08-30T01:34:17.056Z,10.13
2022-08-30T01:36:46.876Z,8.60
2022-08-30T01:39:18.019Z,10.38
2022-08-30T01:41:45.587Z,10.82
2022-08-30T01:44:13.942Z,8.30
2022-08-30T01:46:46.452Z,9.13
2022-08-30T01:49:18.931Z,12.02
2022-08-30T01:52:00.525Z,10.07
2022-08-30T01:54:36.952Z,10.85
2022-08-30T01:57:09.046Z,11.40
2022-08-30T01:59:38.726Z,13.88
2022-08-30T02:02:07.410Z,10.70
2022-08-30T02:04:36.782Z,12.68
2022-08-30T02:07:05.479Z,10.23
2022-08-30T02:09:32.797Z,12.02
2022-08-30T02:12:00.112Z,15.30
2022-08-30T02:14:27.730Z,9.55
2022-08-30T02:16:55.156Z,9.77
2022-08-30T02:19:22.654Z,12.07
2022-08-30T02:21:51.555Z,10.30
2022-08-30T02:24:18.834Z,9.27
2022-08-30T02:26:46.622Z,9.20
2022-08-30T02:29:13.938Z,9.00
2022-08-30T02:31:41.398Z,12.68
2022-08-30T02:34:08.879Z,11.05
2022-08-30T02:36:36.842Z,8.40
2022-08-30T02:39:04.282Z,9.10
2022-08-30T02:41:31.577Z,10.57
2022-08-30T02:44:00.424Z,8.95
2022-08-30T02:46:29.127Z,11.32
2022-08-30T02:49:13.171Z,11.13
2022-08-30T02:51:48.002Z,9.65
2022-08-30T02:54:19.886Z,12.27
2022-08-30T02:56:49.316Z,10.55
2022-08-30T02:59:18.068Z,9.00
2022-08-30T03:01:45.650Z,11.27
2022-08-30T03:04:13.140Z,9.85
2022-08-30T03:06:40.417Z,9.80
2022-08-30T03:09:07.845Z,8.05
2022-08-30T03:11:35.302Z,10.40
2022-08-30T03:14:02.552Z,11.10
2022-08-30T03:16:29.910Z,8.93
2022-08-30T03:18:57.270Z,9.63
2022-08-30T03:21:24.710Z,8.60
2022-08-30T03:23:51.992Z,9.35
2022-08-30T03:26:19.230Z,8.60
2022-08-30T03:28:46.509Z,9.73
2022-08-30T03:31:13.861Z,11.77
2022-08-30T03:33:41.991Z,9.95
2022-08-30T03:36:10.381Z,11.48
2022-08-30T03:38:38.525Z,9.40
2022-08-30T03:41:06.128Z,10.02
2022-08-30T03:43:37.824Z,10.52
2022-08-30T03:46:06.061Z,8.00
2022-08-30T03:48:33.280Z,9.25
2022-08-30T03:51:00.520Z,12.73
2022-08-30T03:53:27.790Z,11.40
2022-08-30T03:55:55.602Z,12.07
2022-08-30T03:58:25.041Z,10.52
2022-08-30T04:00:52.482Z,11.07
2022-08-30T04:03:25.782Z,13.00
2022-08-30T04:05:56.669Z,9.80
2022-08-30T04:08:24.996Z,13.02
2022-08-30T04:10:53.615Z,10.70
2022-08-30T04:13:23.517Z,11.73
2022-08-30T04:15:50.956Z,11.55
2022-08-30T04:18:18.414Z,10.30
2022-08-30T04:20:46.666Z,11.63
2022-08-30T04:23:15.070Z,11.93
2022-08-30T04:25:42.804Z,11.77
2022-08-30T04:28:11.386Z,11.82
2022-08-30T04:30:44.468Z,11.07
2022-08-30T04:33:14.324Z,12.43
2022-08-30T04:35:45.597Z,10.20
2022-08-30T04:38:13.910Z,12.30
2022-08-30T04:40:48.680Z,10.32
2022-08-30T04:43:16.616Z,14.35
2022-08-30T04:45:44.168Z,14.00
2022-08-30T04:48:12.701Z,11.55
2022-08-30T04:50:40.071Z,12.15
2022-08-30T04:53:07.478Z,13.90
2022-08-30T04:55:34.707Z,11.98
2022-08-30T04:58:02.314Z,10.65
2022-08-30T05:00:29.645Z,12.10
2022-08-30T05:02:56.909Z,12.63
2022-08-30T05:05:42.546Z,11.45
2022-08-30T05:08:14.084Z,10.50
2022-08-30T05:10:50.523Z,11.68
2022-08-30T05:13:21.392Z,13.00
2022-08-30T05:16:06.380Z,9.50
2022-08-30T05:18:35.361Z,13.77
2022-08-30T05:21:09.568Z,13.98
2022-08-30T05:23:38.622Z,15.07
2022-08-30T05:26:17.190Z,12.68
2022-08-30T05:28:45.312Z,11.18
2022-08-30T05:31:21.004Z,9.75
2022-08-30T05:33:51.131Z,11.45
2022-08-30T05:36:21.718Z,9.68
2022-08-30T05:38:49.062Z,15.18
2022-08-30T05:41:19.493Z,10.57
2022-08-30T05:43:48.751Z,10.45
2022-08-30T05:46:19.930Z,11.48
2022-08-30T05:48:48.481Z,10.23
2022-08-30T05:51:20.237Z,10.10
2022-08-30T05:53:50.034Z,10.73
2022-08-30T05:56:25.235Z,9.60
2022-08-30T05:58:55.143Z,9.05
2022-08-30T06:01:25.077Z,12.77
2022-08-30T06:03:54.771Z,17.95
2022-08-30T06:06:23.093Z,11.73
2022-08-30T06:08:52.086Z,10.90
2022-08-30T06:11:22.669Z,13.13
2022-08-30T06:13:52.497Z,15.75
2022-08-30T06:16:23.466Z,16.55
2022-08-30T06:18:51.447Z,11.30
2022-08-30T06:21:23.954Z,13.50
2022-08-30T06:23:51.243Z,15.10
2022-08-30T06:26:19.358Z,13.88
2022-08-30T06:28:47.044Z,11.75
2022-08-30T06:31:18.629Z,11.35
2022-08-30T06:33:47.207Z,9.40
2022-08-30T06:36:22.706Z,13.15
2022-08-30T06:38:55.958Z,9.25
2022-08-30T06:41:28.074Z,13.63
2022-08-30T06:43:57.640Z,11.00
2022-08-30T06:46:35.091Z,11.18
2022-08-30T06:49:04.452Z,12.55
2022-08-30T06:51:36.439Z,14.38
2022-08-30T06:54:05.976Z,12.75
2022-08-30T06:56:40.328Z,11.05
2022-08-30T06:59:10.255Z,10.27
2022-08-30T07:01:37.774Z,11.75
2022-08-30T07:04:05.058Z,11.10
2022-08-30T07:06:33.950Z,11.93
2022-08-30T07:09:03.419Z,11.60
2022-08-30T07:11:36.850Z,10.30
2022-08-30T07:14:05.237Z,10.83
2022-08-30T07:16:33.946Z,11.68
2022-08-30T07:19:05.343Z,9.53
2022-08-30T07:21:40.371Z,11.13
2022-08-30T07:24:10.213Z,11.07
2022-08-30T07:26:49.738Z,13.40
2022-08-30T07:29:18.867Z,14.80
2022-08-30T07:31:47.593Z,11.70
2022-08-30T07:34:14.854Z,10.10
2022-08-30T07:36:42.203Z,9.63
2022-08-30T07:39:10.026Z,10.88
2022-08-30T07:41:39.003Z,12.67
2022-08-30T07:44:10.639Z,12.23
2022-08-30T07:46:39.631Z,12.43
2022-08-30T07:49:11.016Z,9.43
2022-08-30T07:51:40.385Z,13.93
2022-08-30T07:54:08.129Z,14.73
2022-08-30T07:56:36.099Z,13.60
2022-08-30T07:59:03.835Z,20.92
2022-08-30T08:01:31.718Z,11.50
2022-08-30T08:03:59.229Z,23.60
2022-08-30T08:06:27.757Z,13.27
2022-08-30T08:09:02.260Z,19.45
2022-08-30T08:11:33.715Z,12.77
2022-08-30T08:14:03.854Z,20.70
2022-08-30T08:16:34.984Z,18.55
2022-08-30T08:19:04.043Z,11.15
2022-08-30T08:21:31.382Z,10.70
2022-08-30T08:23:58.622Z,8.23
2022-08-30T08:26:25.954Z,13.48
2022-08-30T08:28:53.514Z,9.65
2022-08-30T08:31:33.254Z,11.23
2022-08-30T08:34:05.996Z,12.35
2022-08-30T08:36:36.975Z,8.87
2022-08-30T08:39:06.962Z,8.80
2022-08-30T08:42:16.394Z,12.00
2022-08-30T08:45:03.809Z,10.60
2022-08-30T08:47:50.661Z,10.97
2022-08-30T08:50:21.210Z,10.60
2022-08-30T08:53:36.071Z,10.43
2022-08-30T08:56:12.766Z,7.05
2022-08-30T08:58:49.115Z,9.32
2022-08-30T09:01:21.068Z,11.43
2022-08-30T09:03:50.293Z,10.30
2022-08-30T09:06:39.626Z,9.48
2022-08-30T09:09:14.104Z,8.75
2022-08-30T09:11:44.350Z,10.70
2022-08-30T09:14:30.290Z,10.02
2022-08-30T09:17:04.122Z,7.30
2022-08-30T09:19:51.744Z,9.23
2022-08-30T09:22:26.697Z,8.18
2022-08-30T09:25:05.219Z,7.43
2022-08-30T09:27:49.056Z,6.90
2022-08-30T09:30:30.035Z,9.10
2022-08-30T09:33:01.654Z,9.23
2022-08-30T09:35:46.798Z,8.48
2022-08-30T09:38:26.558Z,9.25
2022-08-30T09:40:59.033Z,7.85
2022-08-30T09:43:30.347Z,7.63
2022-08-30T09:46:00.809Z,5.97
2022-08-30T09:48:45.509Z,8.95
2022-08-30T09:51:13.735Z,5.67
2022-08-30T09:54:21.270Z,7.50
2022-08-30T10:00:21.549Z,7.30
2022-08-30T10:03:36.325Z,7.18
2022-08-30T10:06:34.268Z,6.45
2022-08-30T10:09:13.533Z,5.65
2022-08-30T10:12:08.840Z,5.72
2022-08-30T10:15:08.104Z,5.15
2022-08-30T10:18:07.826Z,6.13
2022-08-30T10:20:52.954Z,6.82
2022-08-30T10:23:32.774Z,7.00
2022-08-30T10:26:14.672Z,5.57
2022-08-30T10:29:05.267Z,5.30
2022-08-30T10:31:59.614Z,7.60
2022-08-30T10:34:41.044Z,5.80
2022-08-30T10:37:14.854Z,5.95
2022-08-30T10:39:51.101Z,4.53
2022-08-30T10:42:25.641Z,5.80
2022-08-30T10:45:12.660Z,5.13
2022-08-30T10:47:53.741Z,6.77
2022-08-30T10:50:29.785Z,5.47
2022-08-30T10:53:06.775Z,12.23
2022-08-30T10:55:50.239Z,6.32
2022-08-30T10:58:19.101Z,5.50
2022-08-30T11:01:06.823Z,7.25
2022-08-30T11:04:14.538Z,10.77
2022-08-30T11:07:32.621Z,6.00
2022-08-30T11:10:19.862Z,3.70
2022-08-30T11:13:24.215Z,6.85
2022-08-30T11:16:07.065Z,7.22
2022-08-30T11:18:52.658Z,8.35
2022-08-30T11:21:32.606Z,5.72
2022-08-30T11:24:19.687Z,5.75
2022-08-30T11:26:49.975Z,7.75
2022-08-30T11:29:40.658Z,5.95
2022-08-30T11:32:14.049Z,5.95
2022-08-30T11:34:47.360Z,6.23
2022-08-30T11:37:37.521Z,3.92
2022-08-30T11:40:14.149Z,5.15
2022-08-30T11:42:50.831Z,5.05
2022-08-30T11:45:25.348Z,4.75
2022-08-30T11:47:59.541Z,6.27
2022-08-30T11:51:01.778Z,4.25
2022-08-30T11:54:01.235Z,6.20
2022-08-30T11:56:47.040Z,5.80
2022-08-30T11:59:32.036Z,5.57
2022-08-30T12:02:01.608Z,3.58
2022-08-30T12:04:45.668Z,5.20
2022-08-30T12:08:02.240Z,3.72
2022-08-30T12:10:47.174Z,4.77
2022-08-30T12:13:40.011Z,4.10
2022-08-30T12:17:03.495Z,5.63
2022-08-30T12:19:33.797Z,7.28
2022-08-30T12:22:07.191Z,4.18
2022-08-30T12:24:49.972Z,3.75
2022-08-30T12:27:32.741Z,3.70
2022-08-30T12:30:08.693Z,6.65
2022-08-30T12:32:47.469Z,5.43
2022-08-30T12:35:25.823Z,3.95
2022-08-30T12:38:06.695Z,4.65
2022-08-30T12:40:37.245Z,3.03
2022-08-30T12:43:17.347Z,4.03
2022-08-30T12:45:50.948Z,4.22
2022-08-30T12:48:20.787Z,4.30
2022-08-30T12:50:53.782Z,5.70
2022-08-30T12:53:43.135Z,5.20
2022-08-30T12:56:14.422Z,4.87
2022-08-30T12:58:51.648Z,4.97
2022-08-30T13:01:35.978Z,5.60
2022-08-30T13:04:26.967Z,5.17
2022-08-30T13:07:35.420Z,5.07
2022-08-30T13:10:19.880Z,3.55
2022-08-30T13:13:04.627Z,3.07
2022-08-30T13:15:42.531Z,4.88
2022-08-30T13:18:30.085Z,5.00
2022-08-30T13:21:33.533Z,4.20
2022-08-30T13:24:05.833Z,3.88
2022-08-30T13:26:39.962Z,4.32
2022-08-30T13:29:16.211Z,3.10
2022-08-30T13:31:44.117Z,7.77
2022-08-30T13:34:13.075Z,5.13
2022-08-30T13:36:52.941Z,4.80
2022-08-30T13:39:21.861Z,3.47
2022-08-30T13:41:51.589Z,4.10
2022-08-30T13:44:19.375Z,4.28
2022-08-30T13:46:54.454Z,5.43
2022-08-30T13:49:44.235Z,4.85
2022-08-30T13:52:21.550Z,6.23
2022-08-30T13:54:55.199Z,4.70
2022-08-30T14:00:19.513Z,5.50
2022-08-30T14:02:54.549Z,5.47
2022-08-30T14:05:48.986Z,4.55
2022-08-30T14:11:18.660Z,8.65
2022-08-30T14:16:37.889Z,13.80
2022-08-30T14:19:07.352Z,4.53
2022-08-30T14:21:35.811Z,6.63
2022-08-30T14:24:06.632Z,3.55
2022-08-30T14:26:48.481Z,7.75
2022-08-30T14:29:24.848Z,5.20
2022-08-30T14:31:52.973Z,4.65
2022-08-30T14:34:23.022Z,4.72
2022-08-30T14:36:50.461Z,7.13
2022-08-30T14:39:21.165Z,12.38
2022-08-30T14:41:53.385Z,5.03
2022-08-30T14:44:23.421Z,2.88
2022-08-30T14:46:52.668Z,3.83
2022-08-30T14:49:22.066Z,4.95
2022-08-30T14:51:51.266Z,3.95
2022-08-30T14:54:27.267Z,6.75
2022-08-30T14:56:55.537Z,3.20
2022-08-30T14:59:24.606Z,4.20
2022-08-30T15:01:52.569Z,6.10
2022-08-30T15:04:21.649Z,5.47
2022-08-30T15:06:49.979Z,5.22
2022-08-30T15:09:23.366Z,7.20
2022-08-30T15:11:55.131Z,7.50
2022-08-30T15:14:26.431Z,5.40
2022-08-30T15:16:56.359Z,5.35
2022-08-30T15:19:24.710Z,3.30
2022-08-30T15:21:52.631Z,2.92
2022-08-30T15:24:29.460Z,5.00
2022-08-30T15:26:59.962Z,4.07
2022-08-30T15:29:31.612Z,4.30
2022-08-30T15:32:01.818Z,4.18
2022-08-30T15:34:31.957Z,5.03
2022-08-30T15:37:00.018Z,6.88
2022-08-30T15:39:27.511Z,5.90
2022-08-30T15:42:00.693Z,6.50
2022-08-30T15:44:29.849Z,4.93
2022-08-30T15:46:57.534Z,4.55
2022-08-30T15:49:25.405Z,5.78
2022-08-30T15:51:54.478Z,5.22
2022-08-30T15:54:23.980Z,4.43
2022-08-30T15:56:59.059Z,2.60
2022-08-30T15:59:30.587Z,5.35
2022-08-30T16:01:58.759Z,4.38
2022-08-30T16:04:26.956Z,3.37
2022-08-30T16:06:54.806Z,4.80
2022-08-30T16:09:30.212Z,5.38
2022-08-30T16:12:02.077Z,5.40
2022-08-30T16:14:29.758Z,3.90
2022-08-30T16:16:58.173Z,3.97
2022-08-30T16:19:26.071Z,3.85
2022-08-30T16:21:54.397Z,2.13
2022-08-30T16:24:23.411Z,2.33
2022-08-30T16:26:50.752Z,4.10
2022-08-30T16:29:20.131Z,4.03
2022-08-30T16:31:48.417Z,4.95
2022-08-30T16:34:20.134Z,3.17
2022-08-30T16:36:48.714Z,5.00
2022-08-30T16:39:16.664Z,4.85
2022-08-30T16:41:46.934Z,5.32
2022-08-30T16:44:18.378Z,4.63
2022-08-30T16:46:53.185Z,5.30
2022-08-30T16:49:23.080Z,4.90
2022-08-30T16:51:53.002Z,4.50
2022-08-30T16:54:21.056Z,3.83
2022-08-30T16:56:48.691Z,5.10
2022-08-30T16:59:16.826Z,5.40
2022-08-30T17:01:44.889Z,4.80
2022-08-30T17:04:13.842Z,5.10
2022-08-30T17:06:50.320Z,5.18
2022-08-30T17:09:19.286Z,8.18
2022-08-30T17:11:47.477Z,5.65
2022-08-30T17:14:14.858Z,5.05
2022-08-30T17:16:42.297Z,7.50
2022-08-30T17:19:12.918Z,8.18
2022-08-30T17:21:40.376Z,5.72
2022-08-30T17:24:08.057Z,5.93
2022-08-30T17:26:39.856Z,4.13
2022-08-30T17:29:08.059Z,5.72
2022-08-30T17:31:36.075Z,7.63
2022-08-30T17:34:05.937Z,5.68
2022-08-30T17:36:36.691Z,6.40
2022-08-30T17:39:11.196Z,5.20
2022-08-30T17:41:50.016Z,5.80
2022-08-30T17:44:28.671Z,5.50
2022-08-30T17:47:02.727Z,7.40
2022-08-30T17:49:34.104Z,5.30
2022-08-30T17:52:02.753Z,5.35
2022-08-30T17:54:34.717Z,5.97
2022-08-30T17:57:10.721Z,5.13
2022-08-30T17:59:39.461Z,5.25
2022-08-30T18:02:07.521Z,3.78
2022-08-30T18:04:41.777Z,5.10
2022-08-30T18:07:12.428Z,6.03
2022-08-30T18:09:41.224Z,5.07
2022-08-30T18:12:10.725Z,5.35
2022-08-30T18:14:41.044Z,6.10
2022-08-30T18:17:11.769Z,5.97
2022-08-30T18:19:46.133Z,4.60
2022-08-30T18:22:16.220Z,4.63
2022-08-30T18:24:43.777Z,6.32
2022-08-30T18:27:11.135Z,5.43
2022-08-30T18:29:40.952Z,8.23
2022-08-30T18:32:09.053Z,6.57
2022-08-30T18:34:36.654Z,5.70
2022-08-30T18:37:05.179Z,6.97
2022-08-30T18:39:39.119Z,4.65
2022-08-30T18:42:09.746Z,5.82
2022-08-30T18:44:37.901Z,5.95
2022-08-30T18:47:06.777Z,3.40
2022-08-30T18:49:36.902Z,4.80
2022-08-30T18:52:09.868Z,5.05
2022-08-30T18:54:51.698Z,6.63
2022-08-30T18:57:22.345Z,4.88
2022-08-30T18:59:50.115Z,6.70
2022-08-30T19:02:20.126Z,7.03
2022-08-30T19:04:49.112Z,6.97
2022-08-30T19:07:19.003Z,4.25
2022-08-30T19:09:47.103Z,5.97
2022-08-30T19:12:14.834Z,5.05
2022-08-30T19:14:44.562Z,7.50
2022-08-30T19:17:13.259Z,6.40
2022-08-30T19:19:48.812Z,4.53
2022-08-30T19:22:22.494Z,5.90
2022-08-30T19:24:52.086Z,8.85
2022-08-30T19:27:37.003Z,5.00
2022-08-30T19:30:17.287Z,5.32
2022-08-30T19:32:48.403Z,4.88
2022-08-30T19:35:17.805Z,5.07
2022-08-30T19:37:47.734Z,4.17
2022-08-30T19:40:18.645Z,3.88
2022-08-30T19:42:48.719Z,4.85
2022-08-30T19:45:18.705Z,4.07
2022-08-30T19:47:50.773Z,5.80
2022-08-30T19:50:19.323Z,5.18
2022-08-30T19:52:53.378Z,4.72
2022-08-30T19:55:28.481Z,4.22
2022-08-30T19:57:57.552Z,4.05
2022-08-30T20:00:24.926Z,4.60
2022-08-30T20:02:52.196Z,6.30
2022-08-30T20:05:21.410Z,6.13
2022-08-30T20:07:50.915Z,5.95
2022-08-30T20:10:20.607Z,5.72
2022-08-30T20:12:49.826Z,6.40
2022-08-30T20:15:18.516Z,4.73
2022-08-30T20:18:05.842Z,4.28
2022-08-30T20:20:36.990Z,4.90
2022-08-30T20:23:06.115Z,5.50
2022-08-30T20:25:34.609Z,4.60
2022-08-30T20:28:03.379Z,8.80
2022-08-30T20:30:31.568Z,6.88
2022-08-30T20:33:02.603Z,4.90
2022-08-30T20:35:33.497Z,9.27
2022-08-30T20:38:06.434Z,5.00
2022-08-30T20:40:38.224Z,4.85
2022-08-30T20:43:06.741Z,6.53
2022-08-30T20:45:34.390Z,4.75
2022-08-30T20:48:01.956Z,4.18
2022-08-30T20:50:30.217Z,7.57
2022-08-30T20:52:57.789Z,5.90
2022-08-30T20:55:25.057Z,5.80
2022-08-30T20:57:52.318Z,5.97
2022-08-30T21:00:24.445Z,6.97
2022-08-30T21:03:09.291Z,6.40
2022-08-30T21:05:54.034Z,9.57
2022-08-30T21:08:21.976Z,5.90
2022-08-30T21:10:49.350Z,5.15
2022-08-30T21:13:17.331Z,5.03
2022-08-30T21:15:46.253Z,4.28
2022-08-30T21:18:17.382Z,4.63
2022-08-30T21:20:44.982Z,7.53
2022-08-30T21:23:13.638Z,7.70
2022-08-30T21:25:42.994Z,7.50
2022-08-30T21:28:10.984Z,6.05
2022-08-30T21:30:38.698Z,4.68
2022-08-30T21:33:07.813Z,5.47
2022-08-30T21:35:56.923Z,6.57
2022-08-30T21:38:25.056Z,6.05
2022-08-30T21:40:52.916Z,3.55
2022-08-30T21:43:20.251Z,7.20
2022-08-30T21:45:50.486Z,4.90
2022-08-30T21:48:18.175Z,5.40
2022-08-30T21:50:46.746Z,4.80
2022-08-30T21:53:15.175Z,4.30
2022-08-30T21:55:43.098Z,8.35
2022-08-30T21:58:11.402Z,4.88
2022-08-30T22:00:38.987Z,6.47
2022-08-30T22:03:06.445Z,4.07
2022-08-30T22:05:33.824Z,6.97
2022-08-30T22:08:01.144Z,4.20
2022-08-30T22:10:32.827Z,4.57
2022-08-30T22:13:01.077Z,4.20
2022-08-30T22:15:28.557Z,4.28
2022-08-30T22:17:55.942Z,4.88
2022-08-30T22:20:23.162Z,5.38
2022-08-30T22:22:51.468Z,6.25
2022-08-30T22:25:18.835Z,7.20
2022-08-30T22:27:46.128Z,5.10
2022-08-30T22:30:13.784Z,5.63
2022-08-30T22:32:44.217Z,5.65
2022-08-30T22:35:11.780Z,6.88
2022-08-30T22:37:39.104Z,5.90
2022-08-30T22:40:07.108Z,4.82
2022-08-30T22:42:37.982Z,4.85
2022-08-30T22:45:06.064Z,5.70
2022-08-30T22:47:37.563Z,7.57
2022-08-30T22:50:06.221Z,7.57
2022-08-30T22:52:33.736Z,6.57
2022-08-30T22:55:07.250Z,4.55
2022-08-30T22:57:39.288Z,6.57
2022-08-30T23:00:15.608Z,4.90
2022-08-30T23:02:44.949Z,5.30
2022-08-30T23:05:16.878Z,6.05
2022-08-30T23:07:44.313Z,5.00
2022-08-30T23:10:14.559Z,5.72
2022-08-30T23:12:41.883Z,7.20
2022-08-30T23:15:15.810Z,6.35
2022-08-30T23:17:43.233Z,4.97
2022-08-30T23:20:13.394Z,5.30
2022-08-30T23:22:42.007Z,8.02
2022-08-30T23:25:28.280Z,6.45
2022-08-30T23:28:20.670Z,7.22
2022-08-30T23:31:07.161Z,5.43
2022-08-30T23:33:52.814Z,7.25
2022-08-30T23:36:39.121Z,6.43
2022-08-30T23:39:24.847Z,6.87
2022-08-30T23:42:10.448Z,4.85
2022-08-30T23:44:56.267Z,5.50
2022-08-30T23:47:42.524Z,5.85
2022-08-30T23:50:28.509Z,5.37
2022-08-30T23:53:14.130Z,4.78
2022-08-30T23:56:00.100Z,7.13
2022-08-30T23:58:45.798Z,4.33
